createdAt,value
2023-03-07T00:00:40.289Z,0.00
2023-03-07T00:01:40.283Z,0.00
2023-03-07T00:02:40.365Z,0.00
2023-03-07T00:03:40.316Z,0.00
2023-03-07T00:04:40.264Z,0.00
2023-03-07T00:05:40.228Z,0.00
2023-03-07T00:06:40.247Z,0.00
2023-03-07T00:07:40.268Z,0.00
2023-03-07T00:08:40.201Z,0.00
2023-03-07T00:09:40.182Z,0.00
2023-03-07T00:10:40.177Z,0.00
2023-03-07T00:11:40.166Z,0.00
2023-03-07T00:12:40.188Z,0.00
2023-03-07T00:13:40.140Z,0.00
2023-03-07T00:14:40.153Z,0.00
2023-03-07T00:15:40.122Z,0.00
2023-03-07T00:16:40.117Z,0.00
2023-03-07T00:17:40.109Z,0.00
2023-03-07T00:18:40.088Z,0.00
2023-03-07T00:19:40.097Z,0.00
2023-03-07T00:20:40.131Z,0.00
2023-03-07T00:21:40.057Z,0.00
2023-03-07T00:22:40.129Z,0.00
2023-03-07T00:23:40.102Z,0.00
2023-03-07T00:24:40.044Z,0.00
2023-03-07T00:25:40.014Z,0.00
2023-03-07T00:26:40.008Z,0.00
2023-03-07T00:27:40.059Z,0.00
2023-03-07T00:28:39.992Z,0.00
2023-03-07T00:29:39.974Z,0.00
2023-03-07T00:30:39.974Z,0.00
2023-03-07T00:31:40.047Z,0.00
2023-03-07T00:32:40.078Z,0.00
2023-03-07T00:33:39.930Z,0.00
2023-03-07T00:34:39.937Z,0.00
2023-03-07T00:35:39.934Z,0.00
2023-03-07T00:36:39.900Z,0.00
2023-03-07T00:37:39.945Z,0.00
2023-03-07T00:38:40.041Z,0.00
2023-03-07T00:39:39.874Z,0.00
2023-03-07T00:40:39.856Z,0.00
2023-03-07T00:41:39.847Z,0.00
2023-03-07T00:42:39.867Z,0.00
2023-03-07T00:43:39.820Z,0.00
2023-03-07T00:44:39.822Z,0.00
2023-03-07T00:45:39.822Z,0.00
2023-03-07T00:46:39.803Z,0.00
2023-03-07T00:47:39.797Z,0.00
2023-03-07T00:48:39.795Z,0.00
2023-03-07T00:49:39.766Z,0.00
2023-03-07T00:50:39.755Z,0.00
2023-03-07T00:51:39.744Z,0.00
2023-03-07T00:52:39.749Z,0.00
2023-03-07T00:53:39.732Z,0.00
2023-03-07T00:54:39.729Z,0.00
2023-03-07T00:55:39.703Z,0.00
2023-03-07T00:56:39.691Z,0.00
2023-03-07T00:57:39.691Z,0.00
2023-03-07T00:58:39.672Z,0.00
2023-03-07T00:59:39.661Z,0.00
2023-03-07T01:00:39.697Z,0.00
2023-03-07T01:01:39.654Z,0.00
2023-03-07T01:02:39.659Z,0.00
2023-03-07T01:03:39.640Z,0.00
2023-03-07T01:04:39.613Z,0.00
2023-03-07T01:05:39.594Z,0.00
2023-03-07T01:06:39.581Z,0.00
2023-03-07T01:07:39.587Z,0.00
2023-03-07T01:08:39.567Z,0.00
2023-03-07T01:09:39.552Z,0.00
2023-03-07T01:10:39.591Z,0.00
2023-03-07T01:11:39.529Z,0.00
2023-03-07T01:12:39.545Z,0.00
2023-03-07T01:13:39.514Z,0.00
2023-03-07T01:14:39.501Z,0.00
2023-03-07T01:15:39.483Z,0.00
2023-03-07T01:16:39.577Z,0.00
2023-03-07T01:17:39.511Z,0.00
2023-03-07T01:18:39.455Z,0.00
2023-03-07T01:19:39.500Z,0.00
2023-03-07T01:20:39.440Z,0.00
2023-03-07T01:21:39.424Z,0.00
2023-03-07T01:22:39.433Z,0.00
2023-03-07T01:23:39.407Z,0.00
2023-03-07T01:24:39.404Z,0.00
2023-03-07T01:25:39.401Z,0.00
2023-03-07T01:26:39.401Z,0.00
2023-03-07T01:27:39.359Z,0.00
2023-03-07T01:28:39.354Z,0.00
2023-03-07T01:29:39.366Z,0.00
2023-03-07T01:30:39.358Z,0.00
2023-03-07T01:31:39.359Z,0.00
2023-03-07T01:32:39.336Z,0.00
2023-03-07T01:33:39.300Z,0.00
2023-03-07T01:34:39.291Z,0.00
2023-03-07T01:35:39.325Z,0.00
2023-03-07T01:36:39.371Z,0.00
2023-03-07T01:37:39.320Z,0.00
2023-03-07T01:38:39.258Z,0.00
2023-03-07T01:39:39.233Z,0.00
2023-03-07T01:40:39.249Z,0.00
2023-03-07T01:41:39.224Z,0.00
2023-03-07T01:42:39.239Z,0.00
2023-03-07T01:43:39.193Z,0.00
2023-03-07T01:44:39.190Z,0.00
2023-03-07T01:45:39.193Z,0.00
2023-03-07T01:46:39.159Z,0.00
2023-03-07T01:47:39.171Z,0.00
2023-03-07T01:48:39.145Z,0.00
2023-03-07T01:49:39.194Z,0.00
2023-03-07T01:50:39.120Z,0.00
2023-03-07T01:51:39.108Z,0.00
2023-03-07T01:52:39.107Z,0.00
2023-03-07T01:53:39.086Z,0.00
2023-03-07T01:54:39.074Z,0.00
2023-03-07T01:55:39.093Z,0.00
2023-03-07T01:56:39.049Z,0.00
2023-03-07T01:57:39.072Z,0.00
2023-03-07T01:58:39.056Z,0.00
2023-03-07T01:59:39.020Z,0.00
2023-03-07T02:00:39.013Z,0.00
2023-03-07T02:01:39.157Z,0.00
2023-03-07T02:02:39.014Z,0.00
2023-03-07T02:03:38.976Z,0.00
2023-03-07T02:04:39.051Z,0.00
2023-03-07T02:05:38.954Z,0.00
2023-03-07T02:06:38.964Z,0.00
2023-03-07T02:07:38.930Z,0.00
2023-03-07T02:08:38.956Z,0.00
2023-03-07T02:09:38.967Z,0.00
2023-03-07T02:10:38.904Z,0.00
2023-03-07T02:11:38.920Z,0.00
2023-03-07T02:12:38.903Z,0.00
2023-03-07T02:13:38.874Z,0.00
2023-03-07T02:14:38.876Z,0.00
2023-03-07T02:15:38.917Z,0.00
2023-03-07T02:16:38.862Z,0.00
2023-03-07T02:17:38.824Z,0.00
2023-03-07T02:18:38.934Z,0.00
2023-03-07T02:19:38.830Z,0.00
2023-03-07T02:20:38.795Z,0.00
2023-03-07T02:21:38.846Z,0.00
2023-03-07T02:22:38.779Z,0.00
2023-03-07T02:23:38.782Z,0.00
2023-03-07T02:24:38.757Z,0.00
2023-03-07T02:25:38.752Z,0.00
2023-03-07T02:26:38.733Z,0.00
2023-03-07T02:27:38.716Z,0.00
2023-03-07T02:28:38.742Z,0.00
2023-03-07T02:29:38.701Z,0.00
2023-03-07T02:30:38.883Z,0.00
2023-03-07T02:31:38.690Z,0.00
2023-03-07T02:32:38.734Z,0.00
2023-03-07T02:33:38.692Z,0.00
2023-03-07T02:34:38.649Z,0.00
2023-03-07T02:35:38.654Z,0.00
2023-03-07T02:36:38.623Z,0.00
2023-03-07T02:37:38.617Z,0.00
2023-03-07T02:38:38.621Z,0.00
2023-03-07T02:39:38.594Z,0.00
2023-03-07T02:40:38.579Z,0.00
2023-03-07T02:41:38.570Z,0.00
2023-03-07T02:42:38.567Z,0.00
2023-03-07T02:43:38.572Z,0.00
2023-03-07T02:44:38.542Z,0.00
2023-03-07T02:45:38.587Z,0.00
2023-03-07T02:46:38.540Z,0.00
2023-03-07T02:47:38.509Z,0.00
2023-03-07T02:48:38.523Z,0.00
2023-03-07T02:49:38.492Z,0.00
2023-03-07T02:50:38.477Z,0.00
2023-03-07T02:51:38.469Z,0.00
2023-03-07T02:52:38.460Z,0.00
2023-03-07T02:53:38.498Z,0.00
2023-03-07T02:54:38.438Z,0.00
2023-03-07T02:55:38.436Z,0.00
2023-03-07T02:56:38.413Z,0.00
2023-03-07T02:57:38.412Z,0.00
2023-03-07T02:58:38.412Z,0.00
2023-03-07T02:59:38.392Z,0.00
2023-03-07T03:00:38.376Z,0.00
2023-03-07T03:01:38.384Z,0.00
2023-03-07T03:02:38.381Z,0.00
2023-03-07T03:03:38.413Z,0.00
2023-03-07T03:04:38.362Z,0.00
2023-03-07T03:05:38.324Z,0.00
2023-03-07T03:06:38.316Z,0.00
2023-03-07T03:07:38.311Z,0.00
2023-03-07T03:08:38.311Z,0.00
2023-03-07T03:09:38.277Z,0.00
2023-03-07T03:10:38.298Z,0.00
2023-03-07T03:11:38.266Z,0.00
2023-03-07T03:12:38.248Z,0.00
2023-03-07T03:13:39.152Z,0.00
2023-03-07T03:14:38.228Z,0.00
2023-03-07T03:15:38.232Z,0.00
2023-03-07T03:16:38.212Z,0.00
2023-03-07T03:17:38.191Z,0.00
2023-03-07T03:18:38.220Z,0.00
2023-03-07T03:19:38.176Z,0.00
2023-03-07T03:20:38.165Z,0.00
2023-03-07T03:21:38.219Z,0.00
2023-03-07T03:22:38.141Z,0.00
2023-03-07T03:23:38.171Z,0.00
2023-03-07T03:24:38.117Z,0.00
2023-03-07T03:25:40.093Z,0.00
2023-03-07T03:26:38.112Z,0.00
2023-03-07T03:27:38.098Z,0.00
2023-03-07T03:28:38.104Z,0.00
2023-03-07T03:29:38.070Z,0.00
2023-03-07T03:30:38.072Z,0.00
2023-03-07T03:31:38.100Z,0.00
2023-03-07T03:32:38.111Z,0.00
2023-03-07T03:33:38.058Z,0.00
2023-03-07T03:34:38.048Z,0.00
2023-03-07T03:35:38.036Z,0.00
2023-03-07T03:36:38.014Z,0.00
2023-03-07T03:37:37.979Z,0.00
2023-03-07T03:38:37.999Z,0.00
2023-03-07T03:39:37.973Z,0.00
2023-03-07T03:40:37.954Z,0.00
2023-03-07T03:41:37.946Z,0.00
2023-03-07T03:42:37.950Z,0.00
2023-03-07T03:43:38.033Z,0.00
2023-03-07T03:44:37.908Z,0.00
2023-03-07T03:45:37.899Z,0.00
2023-03-07T03:46:37.951Z,0.00
2023-03-07T03:47:37.883Z,0.00
2023-03-07T03:48:37.956Z,0.00
2023-03-07T03:49:37.853Z,0.00
2023-03-07T03:50:37.873Z,0.00
2023-03-07T03:51:37.836Z,0.00
2023-03-07T03:52:37.833Z,0.00
2023-03-07T03:53:37.838Z,0.00
2023-03-07T03:54:37.803Z,0.00
2023-03-07T03:55:37.789Z,0.00
2023-03-07T03:56:37.785Z,0.00
2023-03-07T03:57:37.782Z,0.00
2023-03-07T03:58:37.783Z,0.00
2023-03-07T03:59:37.752Z,0.00
2023-03-07T04:00:37.740Z,0.00
2023-03-07T04:01:37.806Z,0.00
2023-03-07T04:02:37.843Z,0.00
2023-03-07T04:03:37.714Z,0.00
2023-03-07T04:04:37.714Z,0.00
2023-03-07T04:05:37.687Z,0.00
2023-03-07T04:06:37.689Z,0.00
2023-03-07T04:07:37.687Z,0.00
2023-03-07T04:08:37.651Z,0.00
2023-03-07T04:09:37.644Z,0.00
2023-03-07T04:10:37.638Z,0.00
2023-03-07T04:11:37.675Z,0.00
2023-03-07T04:12:37.648Z,0.00
2023-03-07T04:13:37.607Z,0.00
2023-03-07T04:14:37.625Z,0.00
2023-03-07T04:15:37.576Z,0.00
2023-03-07T04:16:37.621Z,0.00
2023-03-07T04:17:37.551Z,0.00
2023-03-07T04:18:37.540Z,0.00
2023-03-07T04:19:37.546Z,0.00
2023-03-07T04:20:37.524Z,0.00
2023-03-07T04:21:37.514Z,0.00
2023-03-07T04:22:37.522Z,0.00
2023-03-07T04:23:37.485Z,0.00
2023-03-07T04:24:37.501Z,0.00
2023-03-07T04:25:37.508Z,0.00
2023-03-07T04:26:37.455Z,0.00
2023-03-07T04:27:37.452Z,0.00
2023-03-07T04:28:37.440Z,0.00
2023-03-07T04:29:37.466Z,0.00
2023-03-07T04:30:37.418Z,0.00
2023-03-07T04:31:37.448Z,0.00
2023-03-07T04:32:37.457Z,0.00
2023-03-07T04:33:37.385Z,0.00
2023-03-07T04:34:37.411Z,0.00
2023-03-07T04:35:37.379Z,0.00
2023-03-07T04:36:37.357Z,0.00
2023-03-07T04:37:37.350Z,0.00
2023-03-07T04:38:37.348Z,0.00
2023-03-07T04:39:37.347Z,0.00
2023-03-07T04:40:37.308Z,0.00
2023-03-07T04:41:37.292Z,0.00
2023-03-07T04:42:37.308Z,0.00
2023-03-07T04:43:37.294Z,0.00
2023-03-07T04:44:37.314Z,0.00
2023-03-07T04:45:37.420Z,0.00
2023-03-07T04:46:37.251Z,0.00
2023-03-07T04:47:37.252Z,0.00
2023-03-07T04:48:37.220Z,0.00
2023-03-07T04:49:37.235Z,0.00
2023-03-07T04:50:37.197Z,0.00
2023-03-07T04:51:37.193Z,0.00
2023-03-07T04:52:37.171Z,0.00
2023-03-07T04:53:37.187Z,0.00
2023-03-07T04:54:37.191Z,0.00
2023-03-07T04:55:37.151Z,0.00
2023-03-07T04:56:37.130Z,0.00
2023-03-07T04:57:37.126Z,0.00
2023-03-07T04:58:37.124Z,0.00
2023-03-07T04:59:37.110Z,0.00
2023-03-07T05:00:37.105Z,0.00
2023-03-07T05:01:37.154Z,0.00
2023-03-07T05:02:37.064Z,0.00
2023-03-07T05:03:37.094Z,0.00
2023-03-07T05:04:37.113Z,0.00
2023-03-07T05:05:37.796Z,0.00
2023-03-07T05:06:37.033Z,0.00
2023-03-07T05:07:37.020Z,0.00
2023-03-07T05:08:37.020Z,0.00
2023-03-07T05:09:36.994Z,0.00
2023-03-07T05:10:37.102Z,0.00
2023-03-07T05:11:36.976Z,0.00
2023-03-07T05:12:36.966Z,0.00
2023-03-07T05:13:37.003Z,0.00
2023-03-07T05:14:36.965Z,0.00
2023-03-07T05:15:36.955Z,0.00
2023-03-07T05:16:36.925Z,0.00
2023-03-07T05:17:36.914Z,0.00
2023-03-07T05:18:36.892Z,0.00
2023-03-07T05:19:36.913Z,4.00
2023-03-07T05:20:36.885Z,4.00
2023-03-07T05:21:36.883Z,0.00
2023-03-07T05:22:36.853Z,0.00
2023-03-07T05:23:36.842Z,4.00
2023-03-07T05:24:36.845Z,4.00
2023-03-07T05:25:36.823Z,4.00
2023-03-07T05:26:36.841Z,4.00
2023-03-07T05:27:36.806Z,4.00
2023-03-07T05:28:36.793Z,8.00
2023-03-07T05:29:36.810Z,4.00
2023-03-07T05:30:36.763Z,4.00
2023-03-07T05:31:36.824Z,8.00
2023-03-07T05:32:36.838Z,8.00
2023-03-07T05:33:36.750Z,8.00
2023-03-07T05:34:36.791Z,8.00
2023-03-07T05:35:36.785Z,12.00
2023-03-07T05:36:36.712Z,12.00
2023-03-07T05:37:36.695Z,16.00
2023-03-07T05:38:36.699Z,16.00
2023-03-07T05:39:36.711Z,16.00
2023-03-07T05:40:36.675Z,16.00
2023-03-07T05:41:36.652Z,20.00
2023-03-07T05:42:36.661Z,16.00
2023-03-07T05:43:36.643Z,20.00
2023-03-07T05:44:36.670Z,24.00
2023-03-07T05:45:36.609Z,24.00
2023-03-07T05:46:36.738Z,32.00
2023-03-07T05:47:36.598Z,32.00
2023-03-07T05:48:36.576Z,36.00
2023-03-07T05:49:36.578Z,40.00
2023-03-07T05:50:36.561Z,44.00
2023-03-07T05:51:36.547Z,44.00
2023-03-07T05:52:36.544Z,52.00
2023-03-07T05:53:36.530Z,52.00
2023-03-07T05:54:36.567Z,52.00
2023-03-07T05:55:36.500Z,52.00
2023-03-07T05:56:36.496Z,60.00
2023-03-07T05:57:36.479Z,72.00
2023-03-07T05:58:36.557Z,64.00
2023-03-07T05:59:36.487Z,72.00
2023-03-07T06:00:36.467Z,84.00
2023-03-07T06:01:36.443Z,84.00
2023-03-07T06:02:36.426Z,84.00
2023-03-07T06:03:36.534Z,92.00
2023-03-07T06:04:36.488Z,104.00
2023-03-07T06:05:36.398Z,124.00
2023-03-07T06:06:36.379Z,148.00
2023-03-07T06:07:36.438Z,144.00
2023-03-07T06:08:36.355Z,144.00
2023-03-07T06:09:36.371Z,172.00
2023-03-07T06:10:36.342Z,164.00
2023-03-07T06:11:36.327Z,156.00
2023-03-07T06:12:36.329Z,176.00
2023-03-07T06:13:36.304Z,164.00
2023-03-07T06:14:36.390Z,188.00
2023-03-07T06:15:36.285Z,220.00
2023-03-07T06:16:36.280Z,208.00
2023-03-07T06:17:36.268Z,232.00
2023-03-07T06:18:36.250Z,228.00
2023-03-07T06:19:36.315Z,236.00
2023-03-07T06:20:36.229Z,260.00
2023-03-07T06:21:36.220Z,248.00
2023-03-07T06:22:36.209Z,284.00
2023-03-07T06:23:36.237Z,264.00
2023-03-07T06:24:36.224Z,280.00
2023-03-07T06:25:36.187Z,292.00
2023-03-07T06:26:36.164Z,312.00
2023-03-07T06:27:36.179Z,324.00
2023-03-07T06:28:36.150Z,328.00
2023-03-07T06:29:36.160Z,356.00
2023-03-07T06:30:36.145Z,356.00
2023-03-07T06:31:36.170Z,352.00
2023-03-07T06:32:36.163Z,368.00
2023-03-07T06:33:36.096Z,364.00
2023-03-07T06:34:36.096Z,352.00
2023-03-07T06:35:36.108Z,328.00
2023-03-07T06:36:36.070Z,344.00
2023-03-07T06:37:36.057Z,368.00
2023-03-07T06:38:36.036Z,344.00
2023-03-07T06:39:36.056Z,324.00
2023-03-07T06:40:36.030Z,352.00
2023-03-07T06:41:36.021Z,360.00
2023-03-07T06:42:36.026Z,340.00
2023-03-07T06:43:35.986Z,344.00
2023-03-07T06:44:35.988Z,324.00
2023-03-07T06:45:35.975Z,344.00
2023-03-07T06:46:35.999Z,324.00
2023-03-07T06:47:35.961Z,336.00
2023-03-07T06:48:35.957Z,332.00
2023-03-07T06:49:35.940Z,336.00
2023-03-07T06:50:35.981Z,332.00
2023-03-07T06:51:37.844Z,368.00
2023-03-07T06:52:35.900Z,372.00
2023-03-07T06:53:35.902Z,388.00
2023-03-07T06:54:35.893Z,408.00
2023-03-07T06:55:35.865Z,432.00
2023-03-07T06:56:35.894Z,500.00
2023-03-07T06:57:35.841Z,564.00
2023-03-07T06:58:35.849Z,596.00
2023-03-07T06:59:35.826Z,592.00
2023-03-07T07:00:35.819Z,560.00
2023-03-07T07:01:35.861Z,576.00
2023-03-07T07:02:35.998Z,616.00
2023-03-07T07:03:35.848Z,668.00
2023-03-07T07:04:35.765Z,648.00
2023-03-07T07:05:35.798Z,596.00
2023-03-07T07:06:35.746Z,620.00
2023-03-07T07:07:35.746Z,692.00
2023-03-07T07:08:35.738Z,844.00
2023-03-07T07:09:35.717Z,716.00
2023-03-07T07:10:35.711Z,632.00
2023-03-07T07:11:35.689Z,684.00
2023-03-07T07:12:35.699Z,664.00
2023-03-07T07:13:35.696Z,752.00
2023-03-07T07:14:35.657Z,860.00
2023-03-07T07:15:35.698Z,856.00
2023-03-07T07:16:35.679Z,764.00
2023-03-07T07:17:35.688Z,664.00
2023-03-07T07:18:35.637Z,644.00
2023-03-07T07:19:35.618Z,768.00
2023-03-07T07:20:35.612Z,936.00
2023-03-07T07:21:35.617Z,1012.00
2023-03-07T07:22:35.624Z,1012.00
2023-03-07T07:23:35.565Z,1004.00
2023-03-07T07:24:35.548Z,1088.00
2023-03-07T07:25:35.557Z,1108.00
2023-03-07T07:26:35.526Z,1284.00
2023-03-07T07:27:35.529Z,1304.00
2023-03-07T07:28:35.505Z,1268.00
2023-03-07T07:29:35.496Z,1392.00
2023-03-07T07:30:35.512Z,1280.00
2023-03-07T07:31:35.629Z,1264.00
2023-03-07T07:32:35.914Z,1136.00
2023-03-07T07:33:35.472Z,1096.00
2023-03-07T07:34:35.469Z,1076.00
2023-03-07T07:35:35.503Z,1228.00
2023-03-07T07:36:35.426Z,1484.00
2023-03-07T07:37:35.414Z,1704.00
2023-03-07T07:38:35.400Z,1848.00
2023-03-07T07:39:35.393Z,1768.00
2023-03-07T07:40:35.412Z,1816.00
2023-03-07T07:41:35.384Z,2032.00
2023-03-07T07:42:35.359Z,2280.00
2023-03-07T07:43:35.347Z,2592.00
2023-03-07T07:44:35.375Z,2844.00
2023-03-07T07:45:35.414Z,3108.00
2023-03-07T07:46:35.324Z,2488.00
2023-03-07T07:47:35.311Z,2248.00
2023-03-07T07:48:35.309Z,1928.00
2023-03-07T07:49:35.283Z,1684.00
2023-03-07T07:50:35.333Z,1488.00
2023-03-07T07:51:35.301Z,1172.00
2023-03-07T07:52:35.259Z,1052.00
2023-03-07T07:53:35.258Z,892.00
2023-03-07T07:54:35.233Z,836.00
2023-03-07T07:55:35.239Z,796.00
2023-03-07T07:56:35.213Z,736.00
2023-03-07T07:57:35.211Z,768.00
2023-03-07T07:58:35.193Z,712.00
2023-03-07T07:59:35.177Z,716.00
2023-03-07T08:00:35.186Z,764.00
2023-03-07T08:01:35.158Z,748.00
2023-03-07T08:02:35.181Z,720.00
2023-03-07T08:03:35.173Z,672.00
2023-03-07T08:04:35.130Z,720.00
2023-03-07T08:05:35.144Z,692.00
2023-03-07T08:06:35.128Z,688.00
2023-03-07T08:07:35.107Z,836.00
2023-03-07T08:08:35.095Z,840.00
2023-03-07T08:09:35.092Z,876.00
2023-03-07T08:10:35.082Z,1032.00
2023-03-07T08:11:35.049Z,1208.00
2023-03-07T08:12:35.054Z,1308.00
2023-03-07T08:13:35.026Z,1208.00
2023-03-07T08:14:35.040Z,1216.00
2023-03-07T08:15:35.111Z,1252.00
2023-03-07T08:16:35.002Z,1080.00
2023-03-07T08:17:34.985Z,920.00
2023-03-07T08:18:34.972Z,760.00
2023-03-07T08:19:34.962Z,660.00
2023-03-07T08:20:34.973Z,556.00
2023-03-07T08:21:34.948Z,540.00
2023-03-07T08:22:34.959Z,664.00
2023-03-07T08:23:34.916Z,776.00
2023-03-07T08:24:40.627Z,792.00
2023-03-07T08:25:35.919Z,816.00
2023-03-07T08:26:34.893Z,872.00
2023-03-07T08:27:34.894Z,956.00
2023-03-07T08:28:34.871Z,968.00
2023-03-07T08:29:34.860Z,968.00
2023-03-07T08:30:34.860Z,908.00
2023-03-07T08:31:34.884Z,928.00
2023-03-07T08:32:34.892Z,1216.00
2023-03-07T08:33:34.811Z,1516.00
2023-03-07T08:34:34.802Z,1632.00
2023-03-07T08:35:34.837Z,1604.00
2023-03-07T08:36:34.793Z,1684.00
2023-03-07T08:37:34.769Z,1756.00
2023-03-07T08:38:34.886Z,2160.00
2023-03-07T08:39:34.762Z,2348.00
2023-03-07T08:40:34.775Z,2500.00
2023-03-07T08:41:34.735Z,2752.00
2023-03-07T08:42:34.771Z,3356.00
2023-03-07T08:43:34.711Z,3768.00
2023-03-07T08:44:34.736Z,3016.00
2023-03-07T08:45:34.700Z,2708.00
2023-03-07T08:46:34.686Z,2428.00
2023-03-07T08:47:34.658Z,2172.00
2023-03-07T08:48:34.647Z,2032.00
2023-03-07T08:49:34.644Z,2060.00
2023-03-07T08:50:34.644Z,2212.00
2023-03-07T08:51:34.617Z,2380.00
2023-03-07T08:52:34.601Z,2260.00
2023-03-07T08:53:34.598Z,2480.00
2023-03-07T08:54:34.609Z,3448.00
2023-03-07T08:55:34.578Z,3852.00
2023-03-07T08:56:34.573Z,3988.00
2023-03-07T08:57:34.546Z,4292.00
2023-03-07T08:58:34.537Z,4540.00
2023-03-07T08:59:34.529Z,4856.00
2023-03-07T09:00:34.524Z,4712.00
2023-03-07T09:01:34.540Z,4800.00
2023-03-07T09:02:34.493Z,4876.00
2023-03-07T09:03:34.477Z,4760.00
2023-03-07T09:04:34.532Z,3788.00
2023-03-07T09:05:34.478Z,3112.00
2023-03-07T09:06:34.450Z,2652.00
2023-03-07T09:07:34.444Z,2116.00
2023-03-07T09:08:34.426Z,2268.00
2023-03-07T09:09:34.412Z,1892.00
2023-03-07T09:10:34.465Z,2044.00
2023-03-07T09:11:34.398Z,2340.00
2023-03-07T09:12:34.388Z,2108.00
2023-03-07T09:13:43.041Z,2064.00
2023-03-07T09:14:35.362Z,1732.00
2023-03-07T09:15:34.402Z,1928.00
2023-03-07T09:16:34.411Z,1976.00
2023-03-07T09:17:34.326Z,2424.00
2023-03-07T09:18:34.344Z,2756.00
2023-03-07T09:19:34.306Z,3400.00
2023-03-07T09:20:34.347Z,3012.00
2023-03-07T09:21:34.294Z,3512.00
2023-03-07T09:22:34.313Z,2844.00
2023-03-07T09:23:34.270Z,2552.00
2023-03-07T09:24:34.260Z,4392.00
2023-03-07T09:25:34.278Z,3892.00
2023-03-07T09:26:34.271Z,2556.00
2023-03-07T09:27:34.222Z,2864.00
2023-03-07T09:28:34.217Z,4348.00
2023-03-07T09:29:34.199Z,5984.00
2023-03-07T09:30:34.278Z,7736.00
2023-03-07T09:31:34.238Z,7248.00
2023-03-07T09:32:34.198Z,7552.00
2023-03-07T09:33:34.161Z,7368.00
2023-03-07T09:34:34.152Z,5940.00
2023-03-07T09:35:34.200Z,11532.00
2023-03-07T09:36:34.133Z,9076.00
2023-03-07T09:37:34.115Z,9888.00
2023-03-07T09:38:34.115Z,11020.00
2023-03-07T09:39:34.096Z,9064.00
2023-03-07T09:40:34.103Z,9168.00
2023-03-07T09:41:34.139Z,8888.00
2023-03-07T09:42:34.080Z,7804.00
2023-03-07T09:43:34.056Z,6820.00
2023-03-07T09:44:34.041Z,6724.00
2023-03-07T09:45:34.106Z,6196.00
2023-03-07T09:46:34.028Z,5252.00
2023-03-07T09:47:34.009Z,4972.00
2023-03-07T09:48:34.010Z,4144.00
2023-03-07T09:49:33.992Z,3884.00
2023-03-07T09:50:34.018Z,3432.00
2023-03-07T09:51:33.966Z,3180.00
2023-03-07T09:52:33.953Z,3036.00
2023-03-07T09:53:33.954Z,3120.00
2023-03-07T09:54:41.638Z,3636.00
2023-03-07T09:55:34.271Z,3724.00
2023-03-07T09:56:33.910Z,3536.00
2023-03-07T09:57:33.893Z,3344.00
2023-03-07T09:58:33.911Z,3024.00
2023-03-07T09:59:33.877Z,2980.00
2023-03-07T10:00:33.887Z,2900.00
2023-03-07T10:01:33.850Z,2888.00
2023-03-07T10:02:33.847Z,2472.00
2023-03-07T10:03:33.888Z,2352.00
2023-03-07T10:04:33.851Z,2328.00
2023-03-07T10:05:33.826Z,2460.00
2023-03-07T10:06:33.800Z,2528.00
2023-03-07T10:07:33.787Z,2292.00
2023-03-07T10:08:33.792Z,1904.00
2023-03-07T10:09:33.763Z,1712.00
2023-03-07T10:10:33.769Z,1956.00
2023-03-07T10:11:33.780Z,1892.00
2023-03-07T10:12:33.734Z,2144.00
2023-03-07T10:13:33.720Z,2432.00
2023-03-07T10:14:33.766Z,2664.00
2023-03-07T10:15:33.760Z,3064.00
2023-03-07T10:16:33.757Z,2964.00
2023-03-07T10:17:33.674Z,2900.00
2023-03-07T10:18:33.666Z,2500.00
2023-03-07T10:19:33.660Z,2652.00
2023-03-07T10:20:33.648Z,2592.00
2023-03-07T10:21:33.663Z,2468.00
2023-03-07T10:22:33.633Z,2796.00
2023-03-07T10:23:33.626Z,2760.00
2023-03-07T10:24:33.608Z,2980.00
2023-03-07T10:25:33.603Z,3272.00
2023-03-07T10:26:33.582Z,3312.00
2023-03-07T10:27:33.569Z,2932.00
2023-03-07T10:28:33.555Z,3064.00
2023-03-07T10:29:33.554Z,2852.00
2023-03-07T10:30:33.573Z,2768.00
2023-03-07T10:31:33.527Z,2876.00
2023-03-07T10:32:33.566Z,2544.00
2023-03-07T10:33:33.498Z,2136.00
2023-03-07T10:34:33.485Z,2716.00
2023-03-07T10:35:33.513Z,2648.00
2023-03-07T10:36:33.465Z,2620.00
2023-03-07T10:37:33.451Z,2340.00
2023-03-07T10:38:33.452Z,2144.00
2023-03-07T10:39:33.429Z,2504.00
2023-03-07T10:40:33.505Z,2536.00
2023-03-07T10:41:33.406Z,2536.00
2023-03-07T10:42:33.400Z,2384.00
2023-03-07T10:43:33.388Z,2040.00
2023-03-07T10:44:33.390Z,2128.00
2023-03-07T10:45:33.365Z,2024.00
2023-03-07T10:46:33.466Z,1836.00
2023-03-07T10:47:33.347Z,2016.00
2023-03-07T10:48:33.332Z,1960.00
2023-03-07T10:49:33.346Z,1988.00
2023-03-07T10:50:33.309Z,2020.00
2023-03-07T10:51:33.308Z,2644.00
2023-03-07T10:52:33.286Z,2704.00
2023-03-07T10:53:33.276Z,2384.00
2023-03-07T10:54:33.266Z,1988.00
2023-03-07T10:55:33.256Z,1688.00
2023-03-07T10:56:33.256Z,1544.00
2023-03-07T10:57:33.232Z,1352.00
2023-03-07T10:58:33.222Z,1740.00
2023-03-07T10:59:33.211Z,1956.00
2023-03-07T11:00:33.197Z,2244.00
2023-03-07T11:01:33.350Z,1940.00
2023-03-07T11:02:33.198Z,2200.00
2023-03-07T11:03:46.121Z,2440.00
2023-03-07T11:04:34.243Z,2568.00
2023-03-07T11:05:33.144Z,2424.00
2023-03-07T11:06:33.157Z,2476.00
2023-03-07T11:07:33.123Z,2424.00
2023-03-07T11:08:33.114Z,2292.00
2023-03-07T11:09:33.110Z,2400.00
2023-03-07T11:10:33.104Z,2380.00
2023-03-07T11:11:33.092Z,2268.00
2023-03-07T11:12:33.073Z,2388.00
2023-03-07T11:13:33.059Z,2704.00
2023-03-07T11:14:33.045Z,2704.00
2023-03-07T11:15:33.065Z,2568.00
2023-03-07T11:16:33.222Z,2440.00
2023-03-07T11:17:33.015Z,2180.00
2023-03-07T11:18:33.042Z,2048.00
2023-03-07T11:19:32.997Z,1916.00
2023-03-07T11:20:32.981Z,1868.00
2023-03-07T11:21:33.042Z,1956.00
2023-03-07T11:22:32.957Z,2020.00
2023-03-07T11:23:32.968Z,2192.00
2023-03-07T11:24:32.946Z,2156.00
2023-03-07T11:25:32.924Z,2132.00
2023-03-07T11:26:33.051Z,2004.00
2023-03-07T11:27:32.904Z,1944.00
2023-03-07T11:28:32.898Z,1908.00
2023-03-07T11:29:32.882Z,2000.00
2023-03-07T11:30:32.873Z,2140.00
2023-03-07T11:31:32.873Z,2252.00
2023-03-07T11:32:32.891Z,2308.00
2023-03-07T11:33:32.838Z,2360.00
2023-03-07T11:34:32.857Z,2340.00
2023-03-07T11:35:32.844Z,2348.00
2023-03-07T11:36:32.824Z,2416.00
2023-03-07T11:37:32.795Z,2324.00
2023-03-07T11:38:32.785Z,2260.00
2023-03-07T11:39:32.774Z,2116.00
2023-03-07T11:40:32.783Z,2028.00
2023-03-07T11:41:32.765Z,2088.00
2023-03-07T11:42:32.795Z,2012.00
2023-03-07T11:43:32.732Z,1968.00
2023-03-07T11:44:32.729Z,1940.00
2023-03-07T11:45:32.713Z,1960.00
2023-03-07T11:46:32.875Z,1944.00
2023-03-07T11:47:32.690Z,1972.00
2023-03-07T11:48:32.678Z,1964.00
2023-03-07T11:49:32.667Z,2024.00
2023-03-07T11:50:32.679Z,2108.00
2023-03-07T11:51:32.668Z,2140.00
2023-03-07T11:52:32.678Z,2200.00
2023-03-07T11:53:32.694Z,2060.00
2023-03-07T11:54:32.614Z,1920.00
2023-03-07T11:55:34.916Z,1912.00
2023-03-07T11:56:32.614Z,1900.00
2023-03-07T11:57:32.588Z,1864.00
2023-03-07T11:58:32.575Z,1872.00
2023-03-07T11:59:32.575Z,1984.00
2023-03-07T12:00:32.608Z,2008.00
2023-03-07T12:01:32.568Z,1916.00
2023-03-07T12:02:32.551Z,1804.00
2023-03-07T12:03:32.523Z,1772.00
2023-03-07T12:04:32.516Z,1800.00
2023-03-07T12:05:32.518Z,1716.00
2023-03-07T12:06:32.547Z,1652.00
2023-03-07T12:07:32.477Z,1708.00
2023-03-07T12:08:32.472Z,1744.00
2023-03-07T12:09:32.458Z,1732.00
2023-03-07T12:10:32.447Z,1852.00
2023-03-07T12:11:32.461Z,2088.00
2023-03-07T12:12:32.430Z,2204.00
2023-03-07T12:13:32.415Z,2168.00
2023-03-07T12:14:32.438Z,2180.00
2023-03-07T12:15:32.396Z,2024.00
2023-03-07T12:16:32.519Z,1912.00
2023-03-07T12:17:32.388Z,1728.00
2023-03-07T12:18:32.367Z,1644.00
2023-03-07T12:19:32.811Z,1560.00
2023-03-07T12:20:32.340Z,1528.00
2023-03-07T12:21:32.355Z,1548.00
2023-03-07T12:22:32.346Z,1608.00
2023-03-07T12:23:32.310Z,1616.00
2023-03-07T12:24:32.296Z,1672.00
2023-03-07T12:25:32.308Z,1712.00
2023-03-07T12:26:32.288Z,1560.00
2023-03-07T12:27:32.267Z,1484.00
2023-03-07T12:28:32.253Z,1520.00
2023-03-07T12:29:32.266Z,1464.00
2023-03-07T12:30:32.235Z,1340.00
2023-03-07T12:31:32.449Z,1152.00
2023-03-07T12:32:32.514Z,1080.00
2023-03-07T12:33:32.304Z,1184.00
2023-03-07T12:34:32.209Z,1284.00
2023-03-07T12:35:32.199Z,1340.00
2023-03-07T12:36:32.230Z,1336.00
2023-03-07T12:37:32.165Z,1356.00
2023-03-07T12:38:32.234Z,1376.00
2023-03-07T12:39:32.151Z,1392.00
2023-03-07T12:40:32.130Z,1428.00
2023-03-07T12:41:32.162Z,1432.00